Terminal Aerodrome Forecast
Issued by NWS Blacksburg, VA

Home | Current Version | Previous Version | Text Only | Print | Product List | Glossary On
Versions: 1 2 3 4 5 6 7 8 9 10 11 12 13
000
FTUS41 KRNK 291141
TAFBLF
TAF
KBLF 291141Z 2912/3012 10004KT P6SM -SHRA OVC100
     FM291600 VRB03KT 6SM -SHRA OVC040
     FM292000 12004KT P6SM SCT030 OVC080
     FM300900 00000KT 6SM BR SCT045=

USA.gov is the U.S. government's official web portal to all federal, state and local government web resources and services.